Time;durP1;ratioP1;P1;durP2;ratioP2;P2;SDS_P1;SDS_P2;PMS_P1;PMS_P2;Temp;Humidity;BMP_temperature;BMP_pressure;BME280_temperature;BME280_humidity;BME280_pressure;Samples;Min_cycle;Max_cycle;Signal;HPM_P1;HPM_P2
2021/08/10 00:00:09;;;;;;;1999.90;999.90;;;;;;;12.93;100.00;101126.81;5112312;28;20776;-67
2021/08/10 00:02:39;;;;;;;1999.90;999.90;;;;;;;13.00;100.00;101129.88;5112462;28;20919;-67
2021/08/10 00:05:06;;;;;;;1999.90;999.90;;;;;;;13.03;100.00;101124.19;5112300;28;20424;-67
2021/08/10 00:07:33;;;;;;;1999.90;999.90;;;;;;;13.02;100.00;101125.19;5112098;28;20412;-67
2021/08/10 00:09:59;;;;;;;1999.90;975.28;;;;;;;12.88;100.00;101121.75;5132718;27;20078;-67
2021/08/10 00:12:26;;;;;;;1999.90;914.20;;;;;;;12.82;100.00;101119.56;5115633;27;20561;-67
2021/08/10 00:14:53;;;;;;;1999.90;653.03;;;;;;;12.78;100.00;101125.41;5115444;27;20070;-67
2021/08/10 00:17:20;;;;;;;1999.90;511.23;;;;;;;12.70;100.00;101128.75;5133872;27;20070;-67
2021/08/10 00:19:46;;;;;;;1918.00;824.08;;;;;;;12.64;100.00;101123.81;5134038;27;20043;-66
2021/08/10 00:22:12;;;;;;;1925.13;639.55;;;;;;;12.58;100.00;101121.63;5133765;27;20509;-67
2021/08/10 00:24:39;;;;;;;1999.90;562.50;;;;;;;12.56;100.00;101124.50;5133929;27;20114;-67
2021/08/10 00:27:05;;;;;;;1999.90;999.90;;;;;;;12.53;100.00;101122.88;5133353;27;20085;-67
2021/08/10 00:29:32;;;;;;;1775.00;782.42;;;;;;;12.46;100.00;101120.78;5133798;27;20551;-67
2021/08/10 00:32:00;;;;;;;1568.45;318.10;;;;;;;12.43;100.00;101130.06;5115343;27;20047;-67
2021/08/10 00:34:28;;;;;;;1999.90;999.90;;;;;;;12.43;100.00;101130.06;5115322;27;20111;-70
2021/08/10 00:36:54;;;;;;;1999.90;999.90;;;;;;;12.41;100.00;101126.59;5115249;27;20047;-67
2021/08/10 00:39:21;;;;;;;1999.90;999.90;;;;;;;12.43;100.00;101132.78;5115186;27;20426;-69
2021/08/10 00:41:47;;;;;;;1702.32;767.53;;;;;;;12.46;100.00;101137.97;5115095;27;20050;-69
2021/08/10 00:44:14;;;;;;;1999.90;999.90;;;;;;;12.48;100.00;101135.13;5115185;27;20044;-70
2021/08/10 00:46:44;;;;;;;1999.90;999.90;;;;;;;12.46;100.00;101120.78;5133382;27;20043;-69
2021/08/10 00:49:12;;;;;;;1999.90;999.90;;;;;;;12.41;100.00;101129.31;5114833;27;20459;-67
2021/08/10 00:51:39;;;;;;;1999.90;999.90;;;;;;;12.38;100.00;101127.72;5133264;27;20051;-69
2021/08/10 00:54:11;;;;;;;1999.90;999.90;;;;;;;12.36;100.00;101126.16;5114992;27;20051;-69
2021/08/10 00:56:43;;;;;;;1999.90;999.90;;;;;;;12.35;100.00;101122.53;5114728;27;20043;-69
2021/08/10 00:59:10;;;;;;;1999.90;999.90;;;;;;;12.32;100.00;101122.78;5114850;27;20498;-69
2021/08/10 01:01:42;;;;;;;1999.90;999.90;;;;;;;12.28;100.00;101124.03;5133344;27;20092;-69
2021/08/10 01:04:10;;;;;;;1999.90;999.90;;;;;;;12.29;100.00;101128.47;5114898;27;21084;-69
2021/08/10 01:06:49;;;;;;;1999.90;999.90;;;;;;;12.30;100.00;101129.34;5114462;27;20691;-67
2021/08/10 01:09:22;;;;;;;1999.90;999.90;;;;;;;12.26;100.00;101117.00;5113439;27;20687;-67
2021/08/10 01:11:57;;;;;;;1999.90;999.90;;;;;;;12.22;100.00;101125.38;5114642;27;20112;-67
2021/08/10 01:14:31;;;;;;;1999.90;999.90;;;;;;;12.19;100.00;101117.50;5114514;27;20487;-70
2021/08/10 01:17:03;;;;;;;1999.90;999.90;;;;;;;12.19;100.00;101119.34;5114303;27;20062;-69
2021/08/10 01:20:06;;;;;;;1999.90;999.90;;;;;;;12.23;100.00;101123.56;5114457;27;20058;-69
2021/08/10 01:22:40;;;;;;;1999.90;999.90;;;;;;;12.19;100.00;101117.50;5074604;27;20540;-69
2021/08/10 01:25:21;;;;;;;1999.90;999.90;;;;;;;12.21;100.00;101115.53;5114149;27;20059;-69
2021/08/10 01:27:57;;;;;;;1999.90;999.90;;;;;;;12.19;100.00;101120.22;5114433;27;20047;-70
2021/08/10 01:30:33;;;;;;;1999.90;999.90;;;;;;;12.16;100.00;101117.75;5114245;27;20050;-69
2021/08/10 01:33:05;;;;;;;1999.90;999.90;;;;;;;12.18;100.00;101117.63;5114070;27;20039;-70
2021/08/10 01:35:32;;;;;;;;;;;;;;;12.21;100.00;101120.06;5132919;27;20508;-69
2021/08/10 01:38:03;;;;;;;1999.90;999.90;;;;;;;12.18;100.00;101113.03;5113909;27;19979;-69
2021/08/10 01:40:31;;;;;;;1999.90;999.90;;;;;;;12.21;100.00;101115.53;5114222;27;20062;-67
2021/08/10 01:43:03;;;;;;;1999.90;999.90;;;;;;;12.19;100.00;101117.50;5132426;27;20074;-67
2021/08/10 01:45:37;;;;;;;1999.90;999.90;;;;;;;12.15;100.00;101112.44;5113825;27;20050;-67
2021/08/10 01:48:09;;;;;;;1999.90;999.90;;;;;;;12.14;100.00;101105.25;5132108;27;20047;-67
2021/08/10 01:50:37;;;;;;;1999.90;999.90;;;;;;;12.14;100.00;101106.09;5113861;27;20080;-67
2021/08/10 01:53:10;;;;;;;1999.90;999.90;;;;;;;12.16;100.00;101111.41;5113925;27;20116;-69
2021/08/10 01:55:38;;;;;;;1999.90;999.90;;;;;;;12.15;100.00;101110.56;5113674;28;20047;-69
2021/08/10 01:58:16;;;;;;;1999.90;999.90;;;;;;;12.10;100.00;101109.22;5113607;28;20043;-69
2021/08/10 02:00:45;;;;;;;1999.90;999.90;;;;;;;12.05;100.00;101120.47;5113192;28;20047;-70
2021/08/10 02:03:15;;;;;;;1999.90;999.90;;;;;;;12.06;100.00;101116.75;5114402;28;20418;-69
2021/08/10 02:05:54;;;;;;;1999.90;999.90;;;;;;;12.07;100.00;101104.03;5113601;27;20055;-69
2021/08/10 02:08:29;;;;;;;1999.90;999.90;;;;;;;12.09;100.00;101124.66;5113545;28;20043;-69
2021/08/10 02:10:57;;;;;;;1999.90;999.90;;;;;;;12.07;100.00;101121.22;5113919;28;20047;-69
2021/08/10 02:13:27;;;;;;;1999.90;999.90;;;;;;;12.04;100.00;101121.47;5113469;28;20127;-67
2021/08/10 02:15:55;;;;;;;1999.90;999.90;;;;;;;12.05;100.00;101126.78;5113239;28;20051;-67
2021/08/10 02:18:24;;;;;;;1999.90;999.90;;;;;;;12.05;100.00;101128.63;5113259;28;20059;-67
2021/08/10 02:21:02;;;;;;;1999.90;999.90;;;;;;;12.08;100.00;101124.78;5115611;27;20059;-67
2021/08/10 02:23:32;;;;;;;1999.90;999.90;;;;;;;12.12;100.00;101113.56;5117739;27;20055;-67
2021/08/10 02:25:59;;;;;;;1999.90;999.90;;;;;;;12.12;100.00;101112.66;5117395;27;20062;-67
2021/08/10 02:28:28;;;;;;;1999.90;999.90;;;;;;;12.14;100.00;101110.69;5117510;27;20055;-67
2021/08/10 02:30:58;;;;;;;1999.90;999.90;;;;;;;12.14;100.00;101117.00;5117588;27;20135;-67
2021/08/10 02:33:35;;;;;;;1999.90;999.90;;;;;;;12.31;100.00;101112.03;5116430;27;20489;-69
2021/08/10 02:36:03;;;;;;;1999.90;999.90;;;;;;;12.39;100.00;101117.72;5134133;27;20518;-67
2021/08/10 02:38:34;;;;;;;1999.90;999.90;;;;;;;12.42;100.00;101125.63;5115842;27;20894;-67
2021/08/10 02:41:03;;;;;;;1999.90;999.90;;;;;;;12.46;100.00;101118.91;5116060;27;20483;-67
2021/08/10 02:43:35;;;;;;;1999.90;999.90;;;;;;;12.48;100.00;101125.13;5116069;27;21029;-67
2021/08/10 02:46:05;;;;;;;1999.90;999.90;;;;;;;12.44;100.00;101123.66;5115914;27;20773;-68
2021/08/10 02:48:32;;;;;;;1999.90;999.90;;;;;;;12.44;100.00;101123.66;5133912;27;20457;-67
2021/08/10 02:51:01;;;;;;;1999.90;999.90;;;;;;;12.44;100.00;101115.47;5115849;27;20425;-67
2021/08/10 02:53:28;;;;;;;1999.90;999.90;;;;;;;12.52;100.00;101120.25;5134011;27;20438;-67
2021/08/10 02:56:09;;;;;;;1999.90;999.90;;;;;;;12.55;100.00;101118.16;5115767;27;20965;-71
2021/08/10 02:58:44;;;;;;;1999.90;999.90;;;;;;;12.50;100.00;101123.13;5115571;27;20422;-67
2021/08/10 03:01:15;;;;;;;1999.90;999.90;;;;;;;12.48;100.00;101125.13;5115799;27;20418;-67
2021/08/10 03:03:45;;;;;;;1999.90;999.90;;;;;;;12.47;100.00;101123.38;5115744;27;20426;-67
2021/08/10 03:06:14;;;;;;;1999.90;999.90;;;;;;;12.46;100.00;101120.78;5115085;27;20497;-69
2021/08/10 03:08:49;;;;;;;1999.90;999.90;;;;;;;12.48;100.00;101124.22;5115028;27;20431;-69
2021/08/10 03:11:18;;;;;;;1999.90;999.90;;;;;;;12.51;100.00;101119.41;5115217;27;20422;-69
2021/08/10 03:13:46;;;;;;;1999.90;999.90;;;;;;;12.51;100.00;101113.97;5115427;27;20418;-67
2021/08/10 03:16:15;;;;;;;1999.90;999.90;;;;;;;12.52;100.00;101120.25;5115103;27;20985;-67
2021/08/10 03:18:46;;;;;;;1999.90;999.90;;;;;;;12.50;100.00;101117.66;5114964;27;20418;-67
2021/08/10 03:21:15;;;;;;;1999.90;999.90;;;;;;;12.47;100.00;101120.66;5115159;27;20865;-67
2021/08/10 03:23:44;;;;;;;1999.90;999.90;;;;;;;12.42;100.00;101119.31;5115209;27;20422;-67
2021/08/10 03:26:15;;;;;;;1999.90;999.90;;;;;;;12.41;100.00;101120.31;5115379;27;20707;-66
2021/08/10 03:28:44;;;;;;;1999.90;999.90;;;;;;;12.39;100.00;101115.00;5133073;27;20422;-66
2021/08/10 03:31:15;;;;;;;1999.90;999.90;;;;;;;12.37;100.00;101115.13;5114813;27;20428;-67
2021/08/10 03:33:42;;;;;;;1999.90;999.90;;;;;;;12.36;100.00;101112.53;5132621;27;20437;-67
2021/08/10 03:36:12;;;;;;;1999.90;999.90;;;;;;;12.37;100.00;101111.50;5114817;27;20448;-69
2021/08/10 03:38:40;;;;;;;1999.90;999.90;;;;;;;12.36;100.00;101113.38;5114674;27;20414;-67
2021/08/10 03:41:08;;;;;;;1999.90;999.90;;;;;;;12.39;100.00;101109.53;5132931;27;20474;-69
2021/08/10 03:43:36;;;;;;;1999.90;999.90;;;;;;;12.39;100.00;101109.53;5133104;27;20418;-69
2021/08/10 03:46:03;;;;;;;1999.90;999.90;;;;;;;12.39;100.00;101104.94;5114760;27;20457;-68
2021/08/10 03:48:35;;;;;;;1999.90;999.90;;;;;;;12.41;100.00;101107.53;5114538;27;20839;-67
2021/08/10 03:51:02;;;;;;;1999.90;999.90;;;;;;;12.44;100.00;101109.16;5133095;27;20467;-70
2021/08/10 03:53:31;;;;;;;1999.90;999.90;;;;;;;12.46;100.00;101105.31;5132943;27;20436;-70
2021/08/10 03:56:00;;;;;;;1999.90;999.90;;;;;;;12.47;100.00;101107.03;5114688;27;20466;-70
2021/08/10 03:58:38;;;;;;;1999.90;999.90;;;;;;;12.53;100.00;101112.00;5113809;27;20417;-70
2021/08/10 04:01:06;;;;;;;1999.90;999.90;;;;;;;12.54;100.00;101102.81;5114629;27;20414;-70
2021/08/10 04:03:35;;;;;;;1999.90;999.90;;;;;;;12.58;100.00;101105.28;5114424;27;20446;-71
2021/08/10 04:06:03;;;;;;;1999.90;999.90;;;;;;;12.65;100.00;101101.03;5114275;27;20437;-71
2021/08/10 04:08:30;;;;;;;1999.90;999.90;;;;;;;12.53;100.00;101106.53;5115969;27;20050;-70
2021/08/10 04:11:00;;;;;;;1999.90;999.90;;;;;;;12.50;100.00;101101.34;5115715;27;20095;-71
2021/08/10 04:13:31;;;;;;;1999.90;999.90;;;;;;;12.49;100.00;101101.47;5115928;27;20051;-67
2021/08/10 04:16:01;;;;;;;1999.90;999.90;;;;;;;12.48;100.00;101106.06;5115436;27;20051;-68
2021/08/10 04:18:30;;;;;;;1999.90;999.90;;;;;;;12.47;100.00;101101.59;5115658;27;20057;-69
2021/08/10 04:20:56;;;;;;;1999.90;999.90;;;;;;;12.48;100.00;101103.34;5133714;27;20116;-67
2021/08/10 04:23:23;;;;;;;1999.90;999.90;;;;;;;12.48;100.00;101103.34;5115669;27;20043;-68
2021/08/10 04:25:49;;;;;;;1999.90;999.90;;;;;;;12.50;100.00;101106.78;5115609;27;20096;-71
2021/08/10 04:28:17;;;;;;;1999.90;999.90;;;;;;;12.54;100.00;101110.97;5115357;27;20058;-70
2021/08/10 04:30:47;;;;;;;1999.90;999.90;;;;;;;12.58;100.00;101114.31;5115446;27;20054;-71
2021/08/10 04:33:16;;;;;;;1999.90;992.85;;;;;;;12.62;100.00;101112.22;5115512;27;20057;-71
2021/08/10 04:35:43;;;;;;;1999.90;950.63;;;;;;;12.65;100.00;101112.78;5133472;27;20051;-68
2021/08/10 04:38:10;;;;;;;1999.90;970.13;;;;;;;12.69;100.00;101103.41;5115005;27;20074;-68
2021/08/10 04:40:37;;;;;;;1999.90;999.90;;;;;;;12.72;100.00;101100.41;5115155;27;20180;-68
2021/08/10 04:43:28;;;;;;;1999.90;754.63;;;;;;;12.77;100.00;101096.44;5132732;27;20383;-69
2021/08/10 04:45:54;;;;;;;1999.90;878.60;;;;;;;12.80;100.00;101102.50;5133211;27;20062;-69
2021/08/10 04:48:21;;;;;;;1999.90;918.60;;;;;;;12.85;100.00;101102.97;5114845;27;20309;-69
2021/08/10 04:50:47;;;;;;;1999.90;944.65;;;;;;;12.93;100.00;101106.88;5114391;27;20448;-71
2021/08/10 04:53:18;;;;;;;1999.90;782.20;;;;;;;12.99;100.00;101103.66;5111373;27;20082;-71
2021/08/10 04:55:44;;;;;;;;;;;;;;;13.00;100.00;101103.50;5129067;27;20082;-69
2021/08/10 04:58:11;;;;;;;;;;;;;;;13.04;100.00;101098.63;5114791;27;19972;-67
2021/08/10 05:00:39;;;;;;;;;;;;;;;13.12;100.00;101106.16;5099173;28;19919;-67
2021/08/10 05:03:05;;;;;;;;;;;;;;;13.23;100.00;101106.13;5109043;27;20278;-67
2021/08/10 05:05:32;;;;;;;;;;;;;;;13.35;100.00;101098.75;5107017;28;19927;-70
2021/08/10 05:08:00;;;;;;;;;;;;;;;13.43;100.00;101107.16;5094341;28;19964;-70
2021/08/10 05:10:27;;;;;;;;;;;;;;;13.51;100.00;101096.41;5100045;27;20393;-70
2021/08/10 05:12:56;;;;;;;;;;;;;;;13.68;100.00;101097.66;5114928;27;20300;-70
2021/08/10 05:15:25;;;;;;;;;;;;;;;13.81;100.00;101099.28;5108851;28;19927;-70
2021/08/10 05:17:52;;;;;;;;;;;;;;;13.87;100.00;101091.44;5095516;28;19958;-67
2021/08/10 05:20:23;;;;;;;;;;;;;;;13.96;100.00;101097.06;5104489;27;20447;-67
2021/08/10 05:22:49;;;;;;;;;;;;;;;14.02;100.00;101088.31;5112978;28;19926;-66
2021/08/10 05:25:16;;;;;;;;;;;;;;;14.05;100.00;101088.03;5111637;27;20451;-68
2021/08/10 05:27:42;;;;;;;;;;;;;;;14.19;100.00;101087.66;5104025;28;19920;-66
2021/08/10 05:30:09;;;;;;;;;;;;;;;14.31;100.00;101087.53;5096853;28;19923;-67
2021/08/10 05:32:36;;;;;;;;;;;;;;;14.36;100.00;101086.13;5101091;27;19920;-66
2021/08/10 05:35:04;;;;;;;;;;;;;;;14.42;100.00;101081.97;5114351;27;19919;-66
2021/08/10 05:37:30;;;;;;;;;;;;;;;14.54;100.00;101079.97;5123690;27;19919;-67
2021/08/10 05:39:56;;;;;;;;;;;;;;;14.65;100.00;101085.31;5117827;27;20420;-66
2021/08/10 05:42:23;;;;;;;;;;;;;;;14.86;100.00;101084.34;5113787;27;19920;-70
2021/08/10 05:44:50;;;;;;;;;;;;;;;15.10;100.00;101089.34;5105866;27;20014;-70
2021/08/10 05:47:16;;;;;;;;;;;;;;;15.46;100.00;101075.00;5114826;27;19976;-69
2021/08/10 05:49:42;;;;;;;1999.90;999.90;;;;;;;15.87;100.00;101071.03;5126184;27;19919;-69
2021/08/10 05:52:10;;;;;;;1999.90;999.90;;;;;;;16.38;100.00;101062.38;5102078;27;20059;-67
2021/08/10 05:54:38;;;;;;;1999.90;999.90;;;;;;;16.87;100.00;101049.13;5109146;28;20418;-70
2021/08/10 05:57:06;;;;;;;1999.90;999.90;;;;;;;17.07;100.00;101036.13;5127331;27;20428;-69
2021/08/10 05:59:32;;;;;;;1999.90;999.90;;;;;;;16.96;100.00;101033.66;5113163;28;20040;-69
2021/08/10 06:02:02;;;;;;;;;;;;;;;16.98;100.00;101034.38;5096428;27;20052;-69
2021/08/10 06:04:28;;;;;;;;;;;;;;;17.50;100.00;101027.16;5100839;28;19920;-70
2021/08/10 06:06:58;;;;;;;1999.90;999.90;;;;;;;18.39;100.00;101035.97;5099450;28;20000;-70
2021/08/10 06:09:29;;;;;;;1999.90;999.90;;;;;;;18.46;100.00;101017.75;5111685;28;20377;-70
2021/08/10 06:11:56;;;;;;;1999.90;999.90;;;;;;;18.69;100.00;101017.97;5113518;27;20051;-67
2021/08/10 06:14:23;;;;;;;1999.90;999.90;;;;;;;19.02;100.00;101015.22;5114039;28;20042;-67
2021/08/10 06:16:49;;;;;;;1999.90;999.90;;;;;;;19.46;100.00;101019.44;5110014;28;20047;-67
2021/08/10 06:19:17;;;;;;;;;;;;;;;19.30;100.00;101011.25;5097789;28;20101;-67
2021/08/10 06:21:44;;;;;;;;;;;;;;;19.44;100.00;101005.03;5109430;28;19919;-66
2021/08/10 06:24:11;;;;;;;;;;;;;;;19.85;100.00;101004.03;5105588;28;20641;-67
2021/08/10 06:26:41;;;;;;;;;;;;;;;20.11;100.00;100998.22;5109191;28;20010;-67
2021/08/10 06:29:08;;;;;;;;;;;;;;;20.30;100.00;101001.56;5094391;28;19927;-67
2021/08/10 06:31:35;;;;;;;1999.90;999.90;;;;;;;20.71;100.00;101004.03;5101183;28;19972;-67
2021/08/10 06:34:01;;;;;;;1999.90;999.90;;;;;;;21.01;100.00;101006.91;5110006;28;20099;-67
2021/08/10 06:36:28;;;;;;;1999.90;999.90;;;;;;;21.28;100.00;101004.56;5112776;28;20502;-66
2021/08/10 06:38:56;;;;;;;1999.90;999.90;;;;;;;21.49;100.00;100995.53;5108018;28;20040;-66
2021/08/10 06:41:24;;;;;;;1999.90;999.90;;;;;;;21.97;100.00;100993.22;5111391;28;20394;-66
2021/08/10 06:44:12;;;;;;;1999.90;999.90;;;;;;;22.33;100.00;101000.66;5103321;28;20042;-69
2021/08/10 06:46:50;;;;;;;1999.90;999.90;;;;;;;22.67;100.00;101003.81;5113193;28;20054;-67
2021/08/10 06:49:19;;;;;;;1999.90;999.90;;;;;;;22.64;100.00;100993.16;5110418;28;20129;-69
2021/08/10 06:51:45;;;;;;;1999.90;999.90;;;;;;;22.85;100.00;100995.88;5110090;28;20542;-67
2021/08/10 06:54:14;;;;;;;1999.90;999.90;;;;;;;22.83;100.00;100992.44;5104799;28;20047;-68
2021/08/10 06:56:49;;;;;;;1999.90;999.90;;;;;;;23.21;100.00;100997.69;5097340;28;20052;-70
2021/08/10 06:59:21;;;;;;;1999.90;999.90;;;;;;;23.47;100.00;100998.94;5096435;28;20909;-70
2021/08/10 07:01:48;;;;;;;1999.90;999.90;;;;;;;23.21;100.00;101000.47;5102695;28;20412;-70
2021/08/10 07:04:15;;;;;;;1999.90;999.90;;;;;;;23.65;100.00;100992.88;5079131;28;20550;-69
2021/08/10 07:06:41;;;;;;;1999.90;999.90;;;;;;;23.53;100.00;100989.81;5125596;27;20417;-71
2021/08/10 07:09:08;;;;;;;1999.90;999.90;;;;;;;22.40;100.00;100986.94;5100154;28;20907;-69
2021/08/10 07:11:44;;;;;;;1999.90;999.90;;;;;;;21.64;100.00;100979.84;5094862;28;20489;-69
2021/08/10 07:14:12;;;;;;;1999.90;999.90;;;;;;;21.19;100.00;100988.09;5110590;27;20050;-67
2021/08/10 07:16:40;;;;;;;1999.90;999.90;;;;;;;20.92;100.00;100988.69;5134941;27;20043;-67
2021/08/10 07:19:08;;;;;;;1999.90;999.90;;;;;;;20.70;100.00;100992.16;5114354;27;20051;-68
2021/08/10 07:21:36;;;;;;;1999.90;999.90;;;;;;;20.94;100.00;100997.63;5087687;28;20085;-70
2021/08/10 07:24:09;;;;;;;1999.90;999.90;;;;;;;21.14;100.00;100993.31;5096038;28;20185;-70
2021/08/10 07:26:39;;;;;;;1999.90;999.90;;;;;;;21.03;100.00;100996.50;5104016;27;20139;-71
2021/08/10 07:29:05;;;;;;;1999.90;999.90;;;;;;;20.82;100.00;100981.53;5134592;27;20130;-70
2021/08/10 07:31:32;;;;;;;1999.90;999.90;;;;;;;20.55;100.00;100981.03;5103858;28;20085;-69
2021/08/10 07:34:06;;;;;;;1999.90;999.90;;;;;;;20.11;100.00;100975.31;5095846;28;20430;-68
2021/08/10 07:36:35;;;;;;;1999.90;999.90;;;;;;;19.95;100.00;100977.13;5108078;27;20051;-67
2021/08/10 07:39:04;;;;;;;1999.90;999.90;;;;;;;20.10;100.00;100984.63;5095428;28;20146;-69
2021/08/10 07:41:30;;;;;;;1999.90;999.90;;;;;;;20.17;100.00;100977.34;5095872;28;20055;-70
2021/08/10 07:43:58;;;;;;;1999.90;999.90;;;;;;;20.23;100.00;100990.41;5113633;28;20451;-70
2021/08/10 07:46:25;;;;;;;1999.90;999.90;;;;;;;20.29;100.00;100999.84;5109641;27;20047;-70
2021/08/10 07:48:52;;;;;;;1999.90;999.90;;;;;;;20.41;100.00;100992.84;5115531;27;20081;-71
2021/08/10 07:51:22;;;;;;;1999.90;999.90;;;;;;;20.48;100.00;100995.75;5114070;27;20108;-68
2021/08/10 07:53:49;;;;;;;1999.90;999.90;;;;;;;20.52;100.00;100999.84;5115928;27;20054;-68
2021/08/10 07:56:16;;;;;;;1999.90;999.90;;;;;;;20.81;100.00;101001.03;5103778;28;20043;-68
2021/08/10 07:58:43;;;;;;;1999.90;999.90;;;;;;;20.96;100.00;100996.41;5103578;27;20075;-67
2021/08/10 08:01:09;;;;;;;1999.90;999.90;;;;;;;21.10;100.00;101002.13;5133895;27;20051;-68
2021/08/10 08:03:36;;;;;;;1999.90;999.90;;;;;;;21.14;100.00;100993.31;5127484;27;20035;-70
2021/08/10 08:06:02;;;;;;;1999.90;999.90;;;;;;;20.72;100.00;100981.81;5095182;28;20050;-70
2021/08/10 08:08:31;;;;;;;1999.90;999.90;;;;;;;20.60;100.00;100977.72;5101140;27;20470;-69
2021/08/10 08:10:59;;;;;;;1999.90;999.90;;;;;;;20.58;100.00;100977.06;5114566;27;20042;-68
2021/08/10 08:13:30;;;;;;;1999.90;999.90;;;;;;;20.58;100.00;100983.41;5095222;28;20039;-68
2021/08/10 08:15:58;;;;;;;1999.90;999.90;;;;;;;20.68;100.00;100987.84;5094915;27;20047;-68
2021/08/10 08:18:25;;;;;;;1999.90;999.90;;;;;;;20.63;100.00;100987.53;5096761;27;20205;-68
2021/08/10 08:20:53;;;;;;;1999.90;999.90;;;;;;;20.53;100.00;100982.25;5094837;28;20134;-68
2021/08/10 08:23:25;;;;;;;1999.90;999.90;;;;;;;20.54;100.00;100975.72;5095680;28;20104;-68
2021/08/10 08:25:54;;;;;;;1999.90;999.90;;;;;;;20.30;100.00;100963.81;5102061;27;20039;-71
2021/08/10 08:28:21;;;;;;;1999.90;999.90;;;;;;;20.26;100.00;100969.88;5133648;27;20112;-70
2021/08/10 08:30:48;;;;;;;1999.90;999.90;;;;;;;20.19;100.00;100981.63;5113396;27;20039;-70
2021/08/10 08:33:15;;;;;;;1999.90;999.90;;;;;;;20.00;100.00;100980.22;5120478;27;20153;-67
2021/08/10 08:35:42;;;;;;;1999.90;999.90;;;;;;;19.92;100.00;100993.16;5094980;28;20049;-68
2021/08/10 08:38:09;;;;;;;1999.90;999.90;;;;;;;19.96;100.00;100978.81;5111542;27;20047;-68
2021/08/10 08:40:38;;;;;;;1999.90;999.90;;;;;;;19.89;100.00;100970.44;5114188;27;20512;-68
2021/08/10 08:43:06;;;;;;;1999.90;999.90;;;;;;;19.78;100.00;100961.69;5133287;27;20039;-71
2021/08/10 08:45:34;;;;;;;1999.90;999.90;;;;;;;19.73;100.00;100973.25;5106830;28;20051;-71
2021/08/10 08:48:03;;;;;;;1999.90;999.90;;;;;;;19.64;100.00;100977.06;5108666;27;20134;-71
2021/08/10 08:50:33;;;;;;;1999.90;999.90;;;;;;;19.67;100.00;100984.97;5089992;28;20047;-67
2021/08/10 08:53:01;;;;;;;1999.90;999.90;;;;;;;19.74;100.00;100980.47;5094317;28;20044;-68
2021/08/10 08:55:29;;;;;;;1999.90;999.90;;;;;;;19.66;100.00;100984.09;5101192;27;20074;-71
2021/08/10 08:57:56;;;;;;;1999.90;999.90;;;;;;;19.71;100.00;100972.56;5102971;27;20545;-71
2021/08/10 09:00:24;;;;;;;1999.90;999.90;;;;;;;19.67;100.00;100969.31;5097273;28;20036;-70
2021/08/10 09:02:52;;;;;;;1999.90;999.90;;;;;;;19.78;100.00;100969.97;5102072;27;20410;-70
2021/08/10 09:05:19;;;;;;;1999.90;999.90;;;;;;;19.91;100.00;100956.50;5096694;28;20074;-70
2021/08/10 09:07:46;;;;;;;1999.90;999.90;;;;;;;20.01;100.00;100951.59;5096739;27;20035;-70
2021/08/10 09:10:15;;;;;;;1999.90;999.90;;;;;;;20.21;100.00;100949.22;5095983;27;20100;-68
2021/08/10 09:12:45;;;;;;;1999.90;999.90;;;;;;;20.40;100.00;100953.41;5110223;27;20115;-70
2021/08/10 09:15:27;;;;;;;1999.90;999.90;;;;;;;20.72;100.00;100956.97;5112561;27;20188;-67
2021/08/10 09:17:55;;;;;;;1999.90;999.90;;;;;;;20.65;100.00;100950.44;5119974;27;20046;-67
2021/08/10 09:20:22;;;;;;;1999.90;999.90;;;;;;;20.63;100.00;100946.16;5105603;28;20130;-67
2021/08/10 09:22:56;;;;;;;1999.90;999.90;;;;;;;20.62;100.00;100955.47;5106413;27;20046;-67
2021/08/10 09:25:35;;;;;;;1999.90;999.90;;;;;;;20.68;100.00;100947.31;5098163;28;20179;-69
2021/08/10 09:28:06;;;;;;;1999.90;999.90;;;;;;;20.74;100.00;100949.38;5094501;28;20100;-69
2021/08/10 09:30:34;;;;;;;1999.90;999.90;;;;;;;20.68;100.00;100950.06;5109737;28;20044;-67
2021/08/10 09:33:04;;;;;;;1999.90;999.90;;;;;;;20.61;100.00;100948.25;5095960;27;20039;-67
2021/08/10 09:35:37;;;;;;;1999.90;999.90;;;;;;;20.66;100.00;100945.81;5077685;28;20047;-67
2021/08/10 09:38:11;;;;;;;1999.90;999.90;;;;;;;20.66;100.00;100948.56;5093764;28;20044;-70
2021/08/10 09:40:41;;;;;;;1999.90;999.90;;;;;;;20.86;100.00;100943.41;5093360;28;20048;-70
2021/08/10 09:43:26;;;;;;;1999.90;999.90;;;;;;;21.28;100.00;100939.16;5100692;27;20402;-70
2021/08/10 09:46:12;;;;;;;1999.90;999.90;;;;;;;22.35;100.00;100931.38;5101049;28;20051;-70
2021/08/10 09:48:42;;;;;;;1999.90;999.90;;;;;;;23.33;100.00;100926.00;5095375;27;20086;-69
2021/08/10 09:51:12;;;;;;;1999.90;999.90;;;;;;;24.80;100.00;100911.72;5113565;27;20054;-69
2021/08/10 09:53:39;;;;;;;1999.90;999.90;;;;;;;24.98;100.00;100929.63;5111941;27;20050;-69
2021/08/10 09:56:07;;;;;;;1999.90;999.90;;;;;;;25.15;100.00;100913.38;5109847;27;20502;-68
2021/08/10 09:58:58;;;;;;;1999.90;999.90;;;;;;;25.83;100.00;100921.28;5114633;27;20326;-71
2021/08/10 10:01:34;;;;;;;1999.90;999.90;;;;;;;26.12;100.00;100916.22;5094577;28;20491;-69
2021/08/10 10:04:17;;;;;;;1999.90;999.90;;;;;;;25.50;95.42;100919.47;5109835;27;20429;-69
2021/08/10 10:06:50;;;;;;;1999.90;999.90;;;;;;;24.74;100.00;100921.72;5108834;28;20061;-68
2021/08/10 10:09:16;;;;;;;1999.90;999.90;;;;;;;24.49;100.00;100924.28;5098086;28;20167;-68
2021/08/10 10:11:46;;;;;;;1999.90;999.90;;;;;;;25.13;100.00;100921.06;5108711;28;20080;-70
2021/08/10 10:14:14;;;;;;;1999.90;999.90;;;;;;;25.06;100.00;100913.56;5113318;28;20051;-68
2021/08/10 10:16:43;;;;;;;1999.90;999.90;;;;;;;25.08;100.00;100918.94;5124200;27;20078;-70
2021/08/10 10:19:11;;;;;;;1999.90;999.90;;;;;;;25.26;100.00;100918.25;5124358;27;20051;-70
2021/08/10 10:21:42;;;;;;;1999.90;999.90;;;;;;;25.06;100.00;100921.06;5129327;27;20158;-68
2021/08/10 10:24:11;;;;;;;1999.90;999.90;;;;;;;24.99;100.00;100932.19;5123140;28;20070;-68
2021/08/10 10:26:40;;;;;;;1999.90;999.90;;;;;;;25.35;100.00;100914.19;5124990;27;20096;-69
2021/08/10 10:29:07;;;;;;;1999.90;999.90;;;;;;;25.71;100.00;100920.28;5107601;28;20118;-68
2021/08/10 10:31:34;;;;;;;1999.90;999.90;;;;;;;25.95;100.00;100913.09;5131245;27;20078;-71
2021/08/10 10:34:01;;;;;;;1999.90;999.90;;;;;;;26.19;100.00;100917.03;5130714;27;20043;-71
2021/08/10 10:36:28;;;;;;;1999.90;999.90;;;;;;;25.91;100.00;100922.97;5107034;28;20467;-71
2021/08/10 10:38:58;;;;;;;1999.90;999.90;;;;;;;24.84;100.00;100921.31;5110841;28;20505;-69
2021/08/10 10:41:27;;;;;;;1999.90;999.90;;;;;;;24.06;100.00;100922.72;5114172;28;20388;-69
2021/08/10 10:43:53;;;;;;;1999.90;999.90;;;;;;;23.42;100.00;100928.59;5130117;27;20118;-69
2021/08/10 10:46:26;;;;;;;1999.90;999.90;;;;;;;23.44;100.00;100921.78;5135549;27;20482;-67
2021/08/10 10:48:56;;;;;;;1999.90;999.90;;;;;;;23.33;100.00;100917.69;5133283;27;20111;-66
2021/08/10 10:51:25;;;;;;;1999.90;999.90;;;;;;;23.10;100.00;100908.78;5130183;27;20488;-70
2021/08/10 10:53:51;;;;;;;1999.90;999.90;;;;;;;22.88;100.00;100901.38;5116729;27;20086;-70
2021/08/10 10:56:35;;;;;;;1999.90;999.90;;;;;;;22.97;100.00;100910.41;5109102;28;20052;-67
2021/08/10 10:59:20;;;;;;;1999.90;999.90;;;;;;;22.95;100.00;100898.66;5122094;27;20781;-67